CPX205 Details

Departure: Washington Dulles International Airport (KIAD) at 0300 UTC
Arrival: Liège Airport (EBLG) at 0940 UTC
Notes:


Current Weather Information
KIAD 230727Z 00000KT 10SM CLR 07/07 A2991 RMK AO2 T00720067 $
EBLG 230720Z 04004KT CAVOK 11/10 Q1017 NOSIG